Time;durP1;ratioP1;P1;durP2;ratioP2;P2;SDS_P1;SDS_P2;PMS_P1;PMS_P2;Temp;Humidity;BMP_temperature;BMP_pressure;BME280_temperature;BME280_humidity;BME280_pressure;Samples;Min_cycle;Max_cycle;Signal;HPM_P1;HPM_P2
2022/09/03 00:01:35;;;;;;;2.17;1.83;;;18.70;99.90;;;;;;5034753;28;20423;-69
2022/09/03 00:04:18;;;;;;;3.10;1.50;;;18.90;99.90;;;;;;5034677;28;20378;-69
2022/09/03 00:06:50;;;;;;;2.80;1.70;;;19.00;99.90;;;;;;5035030;28;20439;-69
2022/09/03 00:09:30;;;;;;;2.70;1.70;;;19.10;99.90;;;;;;5034877;28;20437;-69
2022/09/03 00:12:13;;;;;;;4.60;1.83;;;19.20;99.90;;;;;;5034732;28;20390;-69
2022/09/03 00:14:54;;;;;;;1.60;1.50;;;19.30;99.90;;;;;;5034592;28;20397;-69
2022/09/03 00:17:24;;;;;;;2.70;1.70;;;19.40;99.90;;;;;;5034664;28;20417;-69
2022/09/03 00:20:26;;;;;;;2.10;1.90;;;19.50;99.90;;;;;;5034389;28;20478;-69
2022/09/03 00:22:54;;;;;;;2.33;2.13;;;19.60;99.90;;;;;;5034397;28;20756;-69
2022/09/03 00:25:34;;;;;;;4.13;1.90;;;19.60;99.90;;;;;;5034453;28;20410;-69
2022/09/03 00:28:04;;;;;;;1.90;1.77;;;19.60;99.90;;;;;;5034128;28;20446;-69
2022/09/03 00:30:32;;;;;;;2.23;1.60;;;19.70;99.90;;;;;;5033023;28;20974;-69
2022/09/03 00:33:09;;;;;;;1.90;1.80;;;19.70;99.90;;;;;;5033536;28;20402;-69
2022/09/03 00:35:44;;;;;;;3.53;2.10;;;19.60;99.90;;;;;;5033933;28;20394;-69
2022/09/03 00:38:09;;;;;;;2.20;2.00;;;19.40;99.90;;;;;;5033878;28;20390;-69
2022/09/03 00:40:47;;;;;;;2.00;1.73;;;19.50;99.90;;;;;;5034199;28;20415;-69
2022/09/03 00:43:41;;;;;;;2.03;1.83;;;19.30;99.90;;;;;;5034764;28;20242;-69
2022/09/03 00:46:30;;;;;;;1.63;1.53;;;19.40;99.90;;;;;;5033752;28;20449;-69
2022/09/03 00:49:13;;;;;;;2.30;2.10;;;19.50;99.90;;;;;;5034114;28;20418;-69
2022/09/03 00:51:58;;;;;;;3.63;2.10;;;19.60;99.90;;;;;;5034057;28;20402;-69
2022/09/03 00:54:58;;;;;;;2.90;2.00;;;19.70;99.90;;;;;;5034001;28;20843;-69
2022/09/03 00:57:37;;;;;;;4.37;1.30;;;19.60;99.90;;;;;;5057676;23;20567;-70
2022/09/03 01:00:11;;;;;;;1.63;1.53;;;19.40;99.90;;;;;;5033178;28;20394;-69
2022/09/03 01:03:09;;;;;;;2.30;1.80;;;19.30;99.90;;;;;;5012946;28;20427;-69
2022/09/03 01:05:46;;;;;;;2.10;1.73;;;19.10;99.90;;;;;;5013626;28;20430;-69
2022/09/03 01:08:31;;;;;;;2.30;1.40;;;19.20;99.90;;;;;;5012707;28;20410;-69
2022/09/03 01:11:09;;;;;;;2.63;1.80;;;19.30;99.90;;;;;;5013138;28;20447;-69
2022/09/03 01:14:16;;;;;;;1.63;1.50;;;19.40;99.90;;;;;;5013024;28;20761;-70
2022/09/03 01:17:11;;;;;;;2.83;1.80;;;19.40;99.90;;;;;;4984348;28;20462;-69
2022/09/03 01:20:02;;;;;;;1.77;1.33;;;19.30;99.90;;;;;;5013163;28;20823;-70
2022/09/03 01:22:56;;;;;;;4.77;1.97;;;19.40;99.90;;;;;;5012404;28;20411;-70
2022/09/03 01:25:57;;;;;;;2.77;1.70;;;19.50;99.90;;;;;;5012614;28;20411;-69
2022/09/03 01:29:07;;;;;;;4.47;1.60;;;19.50;99.90;;;;;;5012584;28;20887;-69
2022/09/03 01:31:44;;;;;;;2.10;1.47;;;19.50;99.90;;;;;;5013698;28;20452;-69
2022/09/03 01:34:22;;;;;;;4.03;1.67;;;19.40;99.90;;;;;;5032200;28;20382;-69
2022/09/03 01:37:06;;;;;;;2.90;1.87;;;19.30;99.90;;;;;;5031899;28;20424;-69
2022/09/03 01:39:44;;;;;;;2.33;1.70;;;19.30;99.90;;;;;;5029749;28;20448;-69
2022/09/03 01:42:41;;;;;;;2.20;1.87;;;19.10;99.90;;;;;;5032428;28;20455;-69
2022/09/03 01:45:26;;;;;;;2.20;1.80;;;19.00;99.90;;;;;;5032424;28;20386;-69
2022/09/03 01:48:10;;;;;;;1.93;1.60;;;19.10;99.90;;;;;;5023004;28;20438;-69
2022/09/03 01:50:39;;;;;;;4.30;2.03;;;19.30;99.90;;;;;;5012676;28;20444;-69
2022/09/03 01:53:35;;;;;;;3.10;1.70;;;19.40;99.90;;;;;;5020974;28;20410;-70
2022/09/03 01:56:12;;;;;;;1.97;1.87;;;19.40;99.90;;;;;;5031587;28;20387;-70
2022/09/03 01:58:44;;;;;;;1.70;1.50;;;19.30;99.90;;;;;;5032577;28;20456;-69
2022/09/03 02:01:19;;;;;;;2.20;1.80;;;19.10;99.90;;;;;;5030837;28;20914;-70
2022/09/03 02:03:47;;;;;;;2.50;1.80;;;19.20;99.90;;;;;;5031774;28;20851;-69
2022/09/03 02:06:12;;;;;;;2.83;1.87;;;19.10;99.90;;;;;;5031504;28;20468;-69
2022/09/03 02:08:39;;;;;;;3.30;2.10;;;19.10;99.90;;;;;;5031071;28;20410;-69
2022/09/03 02:11:07;;;;;;;1.67;1.57;;;19.00;99.90;;;;;;5032133;28;20291;-69
2022/09/03 02:13:39;;;;;;;2.80;1.63;;;19.00;99.90;;;;;;5026918;28;20786;-69
2022/09/03 02:16:20;;;;;;;1.80;1.70;;;18.90;99.90;;;;;;5012863;28;20422;-69
2022/09/03 02:18:49;;;;;;;2.43;2.10;;;19.00;99.90;;;;;;5011715;28;20387;-68
2022/09/03 02:21:19;;;;;;;4.17;2.07;;;19.00;99.90;;;;;;5028170;28;20425;-69
2022/09/03 02:23:45;;;;;;;2.13;1.57;;;18.90;99.90;;;;;;5031682;28;20775;-69
2022/09/03 02:26:14;;;;;;;1.83;1.67;;;18.90;99.90;;;;;;5031610;28;20489;-70
2022/09/03 02:28:40;;;;;;;1.80;1.70;;;19.10;99.90;;;;;;5031658;28;20409;-69
2022/09/03 02:31:06;;;;;;;2.70;1.73;;;19.20;99.90;;;;;;5032001;28;20449;-69
2022/09/03 02:33:38;;;;;;;1.40;1.30;;;19.30;99.90;;;;;;5030331;28;20425;-69
2022/09/03 02:36:06;;;;;;;1.57;1.47;;;19.40;99.90;;;;;;5031593;28;20179;-69
2022/09/03 02:38:32;;;;;;;2.37;2.00;;;19.30;99.90;;;;;;5030808;28;20414;-69
2022/09/03 02:40:58;;;;;;;4.13;2.27;;;19.30;99.90;;;;;;5032061;28;20883;-69
2022/09/03 02:43:49;;;;;;;4.07;1.80;;;19.30;99.90;;;;;;5030272;28;20198;-70
2022/09/03 02:46:31;;;;;;;3.90;2.10;;;19.30;99.90;;;;;;5031992;28;20163;-69
2022/09/03 02:48:57;;;;;;;2.60;1.73;;;19.20;99.90;;;;;;5031944;28;20440;-69
2022/09/03 02:51:22;;;;;;;3.67;1.77;;;19.10;99.90;;;;;;5033717;28;21037;-70
2022/09/03 02:53:48;;;;;;;3.70;2.30;;;19.10;99.90;;;;;;5035549;28;20186;-69
2022/09/03 02:56:14;;;;;;;4.03;2.00;;;18.90;99.90;;;;;;5035045;28;20628;-69
2022/09/03 02:58:40;;;;;;;2.40;1.77;;;18.70;99.90;;;;;;5034087;28;20152;-69
2022/09/03 03:01:06;;;;;;;2.37;1.60;;;18.60;99.90;;;;;;5035041;28;20171;-69
2022/09/03 03:03:32;;;;;;;3.57;1.93;;;18.60;99.90;;;;;;5034671;28;20736;-69
2022/09/03 03:06:01;;;;;;;2.97;2.13;;;18.40;99.90;;;;;;5034112;28;20410;-69
2022/09/03 03:08:29;;;;;;;3.10;1.93;;;18.00;99.90;;;;;;5034881;28;20636;-69
2022/09/03 03:10:57;;;;;;;2.57;2.20;;;18.10;99.90;;;;;;5032866;28;20449;-69
2022/09/03 03:13:27;;;;;;;1.90;1.80;;;18.10;99.90;;;;;;5033899;28;20498;-69
2022/09/03 03:16:00;;;;;;;2.30;2.00;;;18.20;99.90;;;;;;5034623;28;20789;-69
2022/09/03 03:18:27;;;;;;;3.50;2.27;;;18.10;99.90;;;;;;5034817;28;20481;-68
2022/09/03 03:20:53;;;;;;;2.10;1.70;;;18.00;99.90;;;;;;5034450;28;20412;-69
2022/09/03 03:23:19;;;;;;;2.43;1.93;;;17.80;99.90;;;;;;5033263;28;20417;-69
2022/09/03 03:25:44;;;;;;;1.90;1.73;;;17.90;99.90;;;;;;5034428;28;20409;-69
2022/09/03 03:28:10;;;;;;;4.57;2.60;;;18.00;99.90;;;;;;5032709;28;20298;-69
2022/09/03 03:30:41;;;;;;;5.43;2.33;;;17.90;99.90;;;;;;5033926;28;20195;-70
2022/09/03 03:33:08;;;;;;;2.23;1.87;;;17.80;99.90;;;;;;5031144;28;20258;-69
2022/09/03 03:35:34;;;;;;;2.23;2.10;;;17.90;99.90;;;;;;5034522;28;20507;-69
2022/09/03 03:38:00;;;;;;;2.23;2.03;;;17.70;99.90;;;;;;5034391;28;20422;-70
2022/09/03 03:40:26;;;;;;;1.93;1.67;;;17.60;99.90;;;;;;5034709;28;20412;-70
2022/09/03 03:42:52;;;;;;;3.67;1.97;;;17.50;99.90;;;;;;5034587;28;20551;-70
2022/09/03 03:45:18;;;;;;;4.63;2.10;;;17.60;99.90;;;;;;5034079;28;20180;-69
2022/09/03 03:47:44;;;;;;;2.00;1.80;;;17.70;99.90;;;;;;5033878;28;20438;-69
2022/09/03 03:50:09;;;;;;;2.63;2.30;;;17.70;99.90;;;;;;5033546;28;20450;-69
2022/09/03 03:52:35;;;;;;;2.40;2.20;;;17.80;99.90;;;;;;5034127;28;20194;-69
2022/09/03 03:55:00;;;;;;;2.50;2.10;;;17.70;99.90;;;;;;5033760;28;20172;-69
2022/09/03 03:57:29;;;;;;;3.27;2.30;;;17.80;99.90;;;;;;5033632;28;20242;-68
2022/09/03 03:59:55;;;;;;;2.03;1.87;;;18.00;99.90;;;;;;5034125;28;20182;-69
2022/09/03 04:02:20;;;;;;;2.10;1.90;;;18.00;99.90;;;;;;5032951;28;20507;-69
2022/09/03 04:04:46;;;;;;;3.03;2.50;;;17.80;99.90;;;;;;5033149;28;20269;-69
2022/09/03 04:07:11;;;;;;;2.70;2.30;;;17.90;99.90;;;;;;5033532;28;20671;-68
2022/09/03 04:09:37;;;;;;;2.30;2.10;;;17.90;99.90;;;;;;5033426;28;20207;-68
2022/09/03 04:12:07;;;;;;;3.13;1.87;;;17.90;99.90;;;;;;5033466;28;20233;-69
2022/09/03 04:14:34;;;;;;;4.50;2.47;;;17.90;99.90;;;;;;5033236;28;20209;-69
2022/09/03 04:17:00;;;;;;;3.57;2.53;;;17.90;99.90;;;;;;5033292;28;20807;-68
2022/09/03 04:19:29;;;;;;;1.73;1.60;;;17.90;99.90;;;;;;5033213;28;20524;-70
2022/09/03 04:21:54;;;;;;;2.23;1.70;;;18.00;99.90;;;;;;5033620;28;20445;-69
2022/09/03 04:24:20;;;;;;;2.80;2.37;;;18.10;99.90;;;;;;5032332;28;20487;-69
2022/09/03 04:26:46;;;;;;;3.07;2.13;;;18.10;99.90;;;;;;5032514;28;20199;-69
2022/09/03 04:29:11;;;;;;;2.20;2.00;;;18.00;99.90;;;;;;5025246;28;20209;-69
2022/09/03 04:31:38;;;;;;;4.10;2.57;;;18.00;99.90;;;;;;5014160;28;20250;-69
2022/09/03 04:34:08;;;;;;;3.47;2.60;;;18.10;99.90;;;;;;5026713;28;20195;-69
2022/09/03 04:36:33;;;;;;;3.40;2.30;;;18.10;99.90;;;;;;5033770;28;20436;-69
2022/09/03 04:39:03;;;;;;;2.83;2.03;;;18.10;99.90;;;;;;5032393;28;20421;-69
2022/09/03 04:41:30;;;;;;;2.73;2.03;;;18.10;99.90;;;;;;5033085;28;20163;-68
2022/09/03 04:43:58;;;;;;;2.00;1.80;;;17.90;99.90;;;;;;5031562;28;20431;-69
2022/09/03 04:46:32;;;;;;;2.13;1.93;;;17.90;99.90;;;;;;5032884;28;20429;-69
2022/09/03 04:48:57;;;;;;;2.60;2.40;;;17.90;99.90;;;;;;5032998;28;20388;-69
2022/09/03 04:51:26;;;;;;;2.37;1.90;;;17.90;99.90;;;;;;5033065;28;20873;-69
2022/09/03 04:54:01;;;;;;;3.60;3.30;;;17.90;99.90;;;;;;5033009;28;20163;-69
2022/09/03 04:56:32;;;;;;;2.40;2.20;;;17.90;99.90;;;;;;5032266;28;20473;-69
2022/09/03 04:59:08;;;;;;;2.80;2.60;;;18.00;99.90;;;;;;5032010;28;20417;-69
2022/09/03 05:01:36;;;;;;;3.07;2.20;;;17.90;99.90;;;;;;5033472;28;20481;-69
2022/09/03 05:04:02;;;;;;;2.57;2.37;;;18.00;99.90;;;;;;5031861;28;21000;-69
2022/09/03 05:06:29;;;;;;;2.73;2.40;;;18.00;99.90;;;;;;5032767;28;20438;-69
2022/09/03 05:08:56;;;;;;;3.40;2.57;;;17.90;99.90;;;;;;5032654;28;20175;-69
2022/09/03 05:11:23;;;;;;;5.43;2.80;;;17.90;99.90;;;;;;5032321;28;20445;-68
2022/09/03 05:13:51;;;;;;;2.67;2.47;;;18.00;99.90;;;;;;5032048;28;20919;-69
2022/09/03 05:16:17;;;;;;;2.33;2.20;;;18.00;99.90;;;;;;5033007;28;20848;-69
2022/09/03 05:18:44;;;;;;;2.80;2.60;;;17.90;99.90;;;;;;5031325;28;20425;-68
2022/09/03 05:21:13;;;;;;;4.87;2.40;;;17.90;99.90;;;;;;5032058;28;20441;-69
2022/09/03 05:23:44;;;;;;;4.00;3.07;;;18.00;99.90;;;;;;5031919;28;20640;-69
2022/09/03 05:26:15;;;;;;;3.83;2.40;;;18.20;99.90;;;;;;5031540;28;20891;-69
2022/09/03 05:28:42;;;;;;;2.90;2.27;;;18.40;99.90;;;;;;5032078;28;20440;-69
2022/09/03 05:31:10;;;;;;;2.57;2.20;;;18.50;99.90;;;;;;5032280;28;20904;-68
2022/09/03 05:33:38;;;;;;;2.80;2.50;;;18.60;99.90;;;;;;5030529;28;20422;-68
2022/09/03 05:36:05;;;;;;;2.60;2.40;;;18.70;99.90;;;;;;5032071;28;20745;-69
2022/09/03 05:38:31;;;;;;;3.23;2.93;;;18.80;99.90;;;;;;5031032;28;20422;-69
2022/09/03 05:41:01;;;;;;;4.50;2.50;;;18.90;99.90;;;;;;5031995;28;20472;-68
2022/09/03 05:43:28;;;;;;;3.20;2.90;;;18.90;99.90;;;;;;5032435;28;20195;-68
2022/09/03 05:46:04;;;;;;;2.93;2.70;;;19.00;99.90;;;;;;5032659;28;20402;-68
2022/09/03 05:48:32;;;;;;;5.07;2.47;;;19.10;99.90;;;;;;5031986;28;20471;-69
2022/09/03 05:51:03;;;;;;;2.70;2.50;;;19.10;99.90;;;;;;5032115;28;20525;-69
2022/09/03 05:53:31;;;;;;;5.03;2.40;;;19.30;99.90;;;;;;5031919;28;20413;-69
2022/09/03 05:55:58;;;;;;;12.30;2.43;;;19.40;99.90;;;;;;5031338;28;20957;-68
2022/09/03 05:58:28;;;;;;;3.90;2.83;;;19.50;99.90;;;;;;5030681;28;20437;-69
2022/09/03 06:00:54;;;;;;;4.83;2.13;;;19.60;99.90;;;;;;5031859;28;20413;-69
2022/09/03 06:03:19;;;;;;;3.30;2.40;;;19.50;99.90;;;;;;5031216;28;20935;-69
2022/09/03 06:05:53;;;;;;;2.63;2.37;;;19.60;99.90;;;;;;5031505;28;20172;-69
2022/09/03 06:08:22;;;;;;;3.03;2.30;;;19.50;99.90;;;;;;5031487;28;20318;-71
2022/09/03 06:10:47;;;;;;;2.10;2.00;;;19.60;99.90;;;;;;5012273;28;20532;-69
2022/09/03 06:13:13;;;;;;;2.30;2.10;;;19.70;99.90;;;;;;5011419;28;20422;-69
2022/09/03 06:15:39;;;;;;;4.07;2.70;;;19.80;99.90;;;;;;5012478;28;20221;-69
2022/09/03 06:18:05;;;;;;;3.00;2.57;;;19.80;99.90;;;;;;5011618;28;20222;-69
2022/09/03 06:20:31;;;;;;;3.00;2.50;;;19.80;99.90;;;;;;5011756;28;20171;-69
2022/09/03 06:22:57;;;;;;;3.10;2.30;;;19.90;99.90;;;;;;5011730;28;20171;-69
2022/09/03 06:25:23;;;;;;;2.90;2.70;;;20.00;99.90;;;;;;5012357;28;20914;-71
2022/09/03 06:27:49;;;;;;;4.03;2.33;;;20.10;99.90;;;;;;5033779;28;20441;-68
2022/09/03 06:30:15;;;;;;;3.47;2.40;;;20.10;99.90;;;;;;5035311;28;20932;-69
2022/09/03 06:32:45;;;;;;;2.70;2.23;;;20.00;99.90;;;;;;5036119;28;20540;-68
2022/09/03 06:35:10;;;;;;;2.80;2.60;;;20.00;99.90;;;;;;5035177;28;20790;-68
2022/09/03 06:37:40;;;;;;;3.33;3.03;;;20.00;99.90;;;;;;5035114;28;20417;-68
2022/09/03 06:40:12;;;;;;;4.43;3.00;;;20.10;99.90;;;;;;5035279;28;20246;-69
2022/09/03 06:42:41;;;;;;;2.80;2.60;;;20.20;99.90;;;;;;5034706;28;20470;-69
2022/09/03 06:45:08;;;;;;;3.03;2.60;;;20.40;99.90;;;;;;5035178;28;20429;-70
2022/09/03 06:47:34;;;;;;;5.47;3.27;;;20.50;99.90;;;;;;5035320;28;20422;-70
2022/09/03 06:50:01;;;;;;;3.20;2.83;;;20.50;99.90;;;;;;5034681;28;20441;-68
2022/09/03 06:52:27;;;;;;;4.67;2.93;;;20.40;99.90;;;;;;5034978;28;20423;-69
2022/09/03 06:54:53;;;;;;;3.17;2.77;;;20.50;99.90;;;;;;5034575;28;20923;-69
2022/09/03 06:57:18;;;;;;;3.27;2.87;;;20.30;99.90;;;;;;5058896;23;20485;-69
2022/09/03 06:59:44;;;;;;;4.53;3.63;;;20.20;99.90;;;;;;5036662;28;20172;-69
2022/09/03 07:02:10;;;;;;;2.70;2.50;;;20.40;99.90;;;;;;5036075;28;20604;-69
2022/09/03 07:04:35;;;;;;;3.00;2.63;;;20.40;99.90;;;;;;5034589;28;20592;-69
2022/09/03 07:07:01;;;;;;;2.93;2.73;;;20.40;99.90;;;;;;5035984;28;20194;-69
2022/09/03 07:09:27;;;;;;;3.93;3.53;;;20.60;99.90;;;;;;5034477;28;20171;-69
2022/09/03 07:11:53;;;;;;;3.63;2.53;;;20.60;99.90;;;;;;5035578;28;20163;-69
2022/09/03 07:14:21;;;;;;;3.40;3.20;;;20.60;99.90;;;;;;5034447;28;20491;-68
2022/09/03 07:16:48;;;;;;;4.80;4.33;;;20.80;99.90;;;;;;5035478;28;20970;-68
2022/09/03 07:19:14;;;;;;;3.30;3.00;;;20.90;99.90;;;;;;5035564;28;20398;-69
2022/09/03 07:21:41;;;;;;;3.50;3.20;;;20.90;99.90;;;;;;5030544;28;20421;-69
2022/09/03 07:24:07;;;;;;;2.63;2.43;;;21.00;99.90;;;;;;5016406;28;20771;-68
2022/09/03 07:26:36;;;;;;;3.20;2.90;;;21.20;99.90;;;;;;5019070;28;20413;-68
2022/09/03 07:29:03;;;;;;;3.27;2.97;;;21.30;99.90;;;;;;5015200;28;20637;-69
2022/09/03 07:31:32;;;;;;;6.17;4.13;;;21.20;99.90;;;;;;5015533;28;20530;-69
2022/09/03 07:33:59;;;;;;;3.00;2.70;;;21.10;99.90;;;;;;5015732;28;20415;-69
2022/09/03 07:36:27;;;;;;;4.10;3.30;;;21.20;99.90;;;;;;5015681;28;20443;-67
2022/09/03 07:38:55;;;;;;;3.13;2.90;;;21.30;99.90;;;;;;5015389;28;20927;-68
2022/09/03 07:41:22;;;;;;;4.13;3.20;;;21.50;99.90;;;;;;5015622;28;20426;-68
2022/09/03 07:43:47;;;;;;;3.70;3.40;;;21.70;99.90;;;;;;5016099;28;20428;-68
2022/09/03 07:46:22;;;;;;;3.40;3.10;;;21.50;99.90;;;;;;5034369;28;20489;-68
2022/09/03 07:48:49;;;;;;;3.27;3.00;;;21.50;99.90;;;;;;5034887;28;20190;-68
2022/09/03 07:51:16;;;;;;;4.10;3.43;;;21.50;99.90;;;;;;5034249;28;20450;-68
2022/09/03 07:53:43;;;;;;;4.77;3.50;;;21.50;99.90;;;;;;5035098;28;20509;-68
2022/09/03 07:56:09;;;;;;;3.43;3.17;;;21.60;99.90;;;;;;5034124;28;20551;-67
2022/09/03 07:58:36;;;;;;;3.70;3.40;;;21.90;99.90;;;;;;5034458;28;20456;-68
2022/09/03 08:01:13;;;;;;;2.90;2.70;;;22.00;99.90;;;;;;5019377;28;20434;-68
2022/09/03 08:03:43;;;;;;;3.83;3.53;;;22.30;99.90;;;;;;5015374;28;20400;-68
2022/09/03 08:06:10;;;;;;;4.10;3.30;;;22.20;99.90;;;;;;5015648;28;20414;-68
2022/09/03 08:08:36;;;;;;;5.90;3.83;;;22.20;99.90;;;;;;5015136;28;20430;-68
2022/09/03 08:11:06;;;;;;;4.40;4.03;;;22.20;99.90;;;;;;5015145;28;20541;-68
2022/09/03 08:13:33;;;;;;;4.93;4.27;;;22.20;99.90;;;;;;5015523;28;20430;-68
2022/09/03 08:16:00;;;;;;;8.77;5.20;;;22.40;99.90;;;;;;5014932;28;20403;-68
2022/09/03 08:18:26;;;;;;;4.13;3.23;;;22.70;99.90;;;;;;5014457;28;20514;-67
2022/09/03 08:20:51;;;;;;;4.30;3.90;;;23.10;99.90;;;;;;5014506;28;20514;-67
2022/09/03 08:23:17;;;;;;;4.70;4.30;;;23.00;99.90;;;;;;5014630;28;20418;-67
2022/09/03 08:25:43;;;;;;;4.47;4.17;;;22.80;99.90;;;;;;5014750;28;20175;-68
2022/09/03 08:28:09;;;;;;;4.17;3.77;;;22.60;99.90;;;;;;5031968;28;20199;-68
2022/09/03 08:30:35;;;;;;;4.20;3.80;;;22.50;99.90;;;;;;5034084;28;20487;-68
2022/09/03 08:33:03;;;;;;;4.10;3.70;;;22.40;99.90;;;;;;5034126;28;20178;-68
2022/09/03 08:35:33;;;;;;;4.60;3.97;;;22.70;99.90;;;;;;5034347;28;20416;-69
2022/09/03 08:38:04;;;;;;;5.00;4.10;;;23.00;99.90;;;;;;5035409;28;20457;-69
2022/09/03 08:40:32;;;;;;;6.73;4.00;;;23.30;99.90;;;;;;5034595;28;20403;-68
2022/09/03 08:43:17;;;;;;;4.93;4.43;;;23.10;99.90;;;;;;5034160;28;20843;-67
2022/09/03 08:45:43;;;;;;;4.80;3.80;;;23.40;99.90;;;;;;5034142;28;20386;-67
2022/09/03 08:48:19;;;;;;;4.30;4.00;;;23.50;99.90;;;;;;5033422;28;20588;-67
2022/09/03 08:50:50;;;;;;;3.97;3.67;;;23.40;99.90;;;;;;5034180;28;20262;-68
2022/09/03 08:53:25;;;;;;;4.50;4.10;;;23.20;99.90;;;;;;5034182;28;20382;-68
2022/09/03 08:55:55;;;;;;;3.57;3.27;;;23.00;99.90;;;;;;5034051;28;20397;-68
2022/09/03 08:58:32;;;;;;;3.43;3.13;;;23.40;99.90;;;;;;5033651;28;20507;-69
2022/09/03 09:01:04;;;;;;;3.70;3.40;;;23.50;99.90;;;;;;5033511;28;20441;-68
2022/09/03 09:03:48;;;;;;;3.77;3.50;;;23.40;99.90;;;;;;5033044;28;20425;-67
2022/09/03 09:06:35;;;;;;;3.83;3.53;;;23.60;99.90;;;;;;5032721;28;20421;-67
2022/09/03 09:09:23;;;;;;;5.90;4.00;;;24.00;99.90;;;;;;5033882;28;20563;-68
2022/09/03 09:12:29;;;;;;;3.90;3.50;;;23.60;99.90;;;;;;5033021;28;20414;-68
2022/09/03 09:15:04;;;;;;;4.20;3.70;;;23.30;99.90;;;;;;5019514;28;20512;-68
2022/09/03 09:17:39;;;;;;;3.70;3.40;;;23.20;99.90;;;;;;5033704;28;20492;-68
2022/09/03 09:20:16;;;;;;;4.20;3.80;;;22.90;99.90;;;;;;5030911;28;20422;-68
2022/09/03 09:23:03;;;;;;;3.47;3.17;;;22.60;99.90;;;;;;5034441;28;20390;-68
2022/09/03 09:25:31;;;;;;;4.27;3.97;;;22.30;99.90;;;;;;5032226;28;20414;-67
2022/09/03 09:28:21;;;;;;;5.00;4.00;;;22.20;99.90;;;;;;5033532;28;20421;-67
2022/09/03 09:30:48;;;;;;;4.00;3.70;;;22.10;99.90;;;;;;5033743;28;20430;-67
2022/09/03 09:33:19;;;;;;;4.90;4.47;;;22.00;99.90;;;;;;5033818;28;20489;-68
2022/09/03 09:35:45;;;;;;;5.73;4.40;;;22.30;99.90;;;;;;5033187;28;20895;-68
2022/09/03 09:38:11;;;;;;;4.13;3.73;;;22.60;99.90;;;;;;5033888;28;20458;-67
2022/09/03 09:40:40;;;;;;;4.20;3.80;;;23.00;99.90;;;;;;5032810;28;20410;-68
2022/09/03 09:43:14;;;;;;;4.30;3.90;;;23.00;99.90;;;;;;5032468;28;20819;-67
2022/09/03 09:45:42;;;;;;;4.00;3.57;;;23.10;99.90;;;;;;5033364;28;20383;-67
2022/09/03 09:48:21;;;;;;;5.33;4.47;;;22.80;99.90;;;;;;5033439;28;20425;-68
2022/09/03 09:50:47;;;;;;;6.53;4.20;;;22.70;99.90;;;;;;5031744;28;20445;-68
2022/09/03 09:53:16;;;;;;;3.90;3.60;;;22.90;99.90;;;;;;5033057;28;20456;-68
2022/09/03 09:56:00;;;;;;;4.27;3.90;;;23.10;99.90;;;;;;5032852;28;20172;-68
2022/09/03 09:58:29;;;;;;;4.47;4.03;;;23.30;99.90;;;;;;5032121;28;20456;-67
2022/09/03 10:00:58;;;;;;;3.77;3.47;;;23.50;99.90;;;;;;5034807;28;20970;-68
2022/09/03 10:03:24;;;;;;;5.60;4.43;;;23.70;99.90;;;;;;5037101;28;20880;-69
2022/09/03 10:09:14;;;;;;;4.43;4.13;;;23.60;99.90;;;;;;5037354;28;20381;-68
2022/09/03 10:12:05;;;;;;;4.73;3.90;;;23.60;99.90;;;;;;5035313;28;20445;-69
2022/09/03 10:14:40;;;;;;;4.53;4.13;;;24.00;99.90;;;;;;5031934;28;20820;-68
2022/09/03 10:17:13;;;;;;;6.67;4.00;;;24.00;99.90;;;;;;5019281;28;20436;-68
2022/09/03 10:20:26;;;;;;;6.87;5.07;;;24.00;99.90;;;;;;5036884;28;20402;-68
2022/09/03 10:23:14;;;;;;;4.80;4.20;;;23.60;99.90;;;;;;5036902;28;20410;-68
2022/09/03 10:26:13;;;;;;;4.73;4.10;;;23.90;99.90;;;;;;5037909;28;20395;-67
2022/09/03 10:28:41;;;;;;;5.23;4.33;;;23.80;99.90;;;;;;5036767;28;20426;-68
2022/09/03 10:31:14;;;;;;;5.33;4.37;;;23.60;99.90;;;;;;5036903;28;20449;-69
2022/09/03 10:33:59;;;;;;;4.87;4.37;;;23.70;99.90;;;;;;5035237;28;20418;-69
2022/09/03 10:36:47;;;;;;;5.10;4.60;;;23.80;99.90;;;;;;5036591;28;20757;-68
2022/09/03 10:39:34;;;;;;;4.80;4.40;;;23.60;99.90;;;;;;5036572;28;20379;-68
2022/09/03 10:42:26;;;;;;;5.07;4.67;;;23.70;99.90;;;;;;5036371;28;20440;-67
2022/09/03 10:45:08;;;;;;;7.40;4.77;;;23.40;99.90;;;;;;5035229;28;20467;-68
2022/09/03 10:47:43;;;;;;;5.47;4.37;;;24.10;99.90;;;;;;5036321;28;20476;-68
2022/09/03 10:50:53;;;;;;;8.30;4.80;;;24.60;99.90;;;;;;5036288;28;20476;-68
2022/09/03 10:53:42;;;;;;;5.80;4.63;;;25.00;99.90;;;;;;5026082;28;20921;-67
2022/09/03 10:56:21;;;;;;;4.00;3.70;;;25.20;99.90;;;;;;5006171;28;20418;-69
2022/09/03 10:59:01;;;;;;;4.10;3.80;;;26.30;99.70;;;;;;5035987;28;20429;-68
2022/09/03 11:01:34;;;;;;;5.20;4.80;;;27.40;98.00;;;;;;5035733;28;20406;-69
2022/09/03 11:04:30;;;;;;;5.90;4.83;;;27.60;97.30;;;;;;5034856;28;20410;-69
2022/09/03 11:07:05;;;;;;;4.10;3.80;;;27.20;96.60;;;;;;5016004;28;20942;-68
2022/09/03 11:09:37;;;;;;;4.57;4.27;;;26.60;98.00;;;;;;5016366;28;20390;-68
2022/09/03 11:12:20;;;;;;;4.57;4.20;;;26.10;97.90;;;;;;5018319;28;20410;-69
2022/09/03 11:15:09;;;;;;;7.00;4.13;;;25.60;98.60;;;;;;5035965;28;20867;-68
2022/09/03 11:17:47;;;;;;;5.57;5.07;;;25.70;98.90;;;;;;5035480;28;20440;-68
2022/09/03 11:20:20;;;;;;;8.03;4.67;;;25.10;99.30;;;;;;5036041;28;20378;-68
2022/09/03 11:22:50;;;;;;;4.83;4.30;;;24.60;99.90;;;;;;5035723;28;20405;-69
2022/09/03 11:25:22;;;;;;;5.60;4.43;;;24.60;99.90;;;;;;5035185;28;20500;-68
2022/09/03 11:27:57;;;;;;;6.23;4.67;;;24.50;99.90;;;;;;5035443;28;20491;-68
2022/09/03 11:30:32;;;;;;;4.23;3.77;;;24.90;99.90;;;;;;5035349;28;20533;-68
2022/09/03 11:33:04;;;;;;;3.83;3.43;;;24.50;99.90;;;;;;5035727;28;20385;-68
2022/09/03 11:35:32;;;;;;;3.63;3.33;;;24.10;99.90;;;;;;5035471;28;20942;-68
2022/09/03 11:38:00;;;;;;;4.00;3.70;;;24.40;99.90;;;;;;5035693;28;20931;-68
2022/09/03 11:40:58;;;;;;;3.80;3.50;;;24.60;99.90;;;;;;5035164;28;20409;-68
2022/09/03 11:43:23;;;;;;;4.50;4.13;;;24.80;99.90;;;;;;5014770;28;20462;-69
2022/09/03 11:46:10;;;;;;;4.57;4.00;;;24.80;99.90;;;;;;5015114;28;20865;-67
2022/09/03 11:48:44;;;;;;;4.63;4.00;;;24.50;99.90;;;;;;5015476;28;20715;-69
2022/09/03 11:51:32;;;;;;;5.10;4.70;;;24.60;99.90;;;;;;5015385;28;20443;-69
2022/09/03 11:54:24;;;;;;;5.53;3.20;;;24.50;99.90;;;;;;5015381;28;20393;-69
2022/09/03 11:57:02;;;;;;;3.77;3.40;;;24.60;99.90;;;;;;5013733;28;20617;-67
2022/09/03 11:59:28;;;;;;;4.20;3.83;;;24.60;99.90;;;;;;5015285;28;20433;-68
2022/09/03 12:02:04;;;;;;;4.30;3.90;;;24.30;99.90;;;;;;5014426;28;20399;-68
2022/09/03 12:05:05;;;;;;;4.13;3.83;;;24.40;99.90;;;;;;5015147;28;20160;-68
2022/09/03 12:07:30;;;;;;;4.43;4.10;;;24.30;99.90;;;;;;5013785;28;20544;-68
2022/09/03 12:10:17;;;;;;;4.40;4.00;;;24.20;99.90;;;;;;5034404;28;20525;-67
2022/09/03 12:13:07;;;;;;;4.13;3.73;;;24.20;99.90;;;;;;5034540;28;20234;-68
2022/09/03 12:16:00;;;;;;;4.50;3.63;;;24.30;99.90;;;;;;5014336;28;20383;-68
2022/09/03 12:18:31;;;;;;;4.20;3.80;;;24.20;99.90;;;;;;5016793;28;20414;-68
2022/09/03 12:20:58;;;;;;;4.43;4.03;;;24.20;99.90;;;;;;5033787;28;20402;-68
2022/09/03 12:23:47;;;;;;;4.40;4.10;;;24.00;99.90;;;;;;5033023;28;20406;-68
2022/09/03 12:26:26;;;;;;;4.50;4.10;;;23.90;99.90;;;;;;5033749;28;20391;-68
2022/09/03 12:28:54;;;;;;;4.80;4.40;;;23.70;99.90;;;;;;5035001;28;20788;-68
2022/09/03 12:31:28;;;;;;;5.63;4.90;;;23.60;99.90;;;;;;5033119;28;20983;-67
2022/09/03 12:34:01;;;;;;;4.47;4.07;;;23.20;99.90;;;;;;5034013;28;20391;-67
2022/09/03 12:36:45;;;;;;;3.70;3.40;;;22.70;99.90;;;;;;5034193;28;20386;-67
2022/09/03 12:39:17;;;;;;;3.90;3.50;;;22.20;99.90;;;;;;5034527;28;20857;-68
2022/09/03 12:42:03;;;;;;;4.07;3.20;;;21.90;99.90;;;;;;5034249;28;20405;-69
2022/09/03 12:44:46;;;;;;;4.97;2.93;;;21.90;99.90;;;;;;5034219;28;20398;-68
2022/09/03 12:47:13;;;;;;;3.33;2.77;;;21.70;99.90;;;;;;5034097;28;20939;-68
2022/09/03 12:49:42;;;;;;;4.37;3.10;;;21.70;99.90;;;;;;5033951;28;20414;-68
2022/09/03 12:52:37;;;;;;;3.43;3.00;;;21.50;99.90;;;;;;5034153;28;20398;-68
2022/09/03 12:55:22;;;;;;;3.13;2.50;;;21.30;99.90;;;;;;5033965;28;20462;-67
2022/09/03 12:58:08;;;;;;;3.00;2.53;;;21.00;99.90;;;;;;5033742;28;20445;-67
2022/09/03 13:00:40;;;;;;;6.43;3.50;;;20.80;99.90;;;;;;5033665;28;20394;-68
2022/09/03 13:03:22;;;;;;;5.73;2.80;;;21.00;99.90;;;;;;5033351;28;20421;-68
2022/09/03 13:05:59;;;;;;;5.00;2.70;;;21.10;99.90;;;;;;5030829;28;20413;-67
2022/09/03 13:08:28;;;;;;;3.83;3.23;;;20.70;99.90;;;;;;5024868;28;20477;-68
2022/09/03 13:10:57;;;;;;;2.67;2.37;;;20.60;99.90;;;;;;5033536;28;20810;-68
2022/09/03 13:13:26;;;;;;;3.30;2.53;;;20.40;99.90;;;;;;5033443;28;20769;-68
2022/09/03 13:16:04;;;;;;;3.77;2.70;;;20.70;99.90;;;;;;5033422;28;20407;-68
2022/09/03 13:18:44;;;;;;;5.00;2.73;;;20.80;99.90;;;;;;5033290;28;20827;-68
2022/09/03 13:21:28;;;;;;;4.27;2.50;;;20.70;99.90;;;;;;5034140;28;20890;-68
2022/09/03 13:24:25;;;;;;;2.47;2.27;;;20.90;99.90;;;;;;5034054;28;20795;-68